Time;durP1;ratioP1;P1;durP2;ratioP2;P2;SDS_P1;SDS_P2;PMS_P1;PMS_P2;Temp;Humidity;BMP_temperature;BMP_pressure;BME280_temperature;BME280_humidity;BME280_pressure;Samples;Min_cycle;Max_cycle;Signal;HPM_P1;HPM_P2
2022/11/09 00:02:15;;;;;;;34.50;22.88;;;9.40;99.90;;;;;;5034424;28;20029;-61
2022/11/09 00:04:41;;;;;;;29.42;23.10;;;9.40;99.90;;;;;;5034368;28;20029;-64
2022/11/09 00:07:06;;;;;;;27.30;19.98;;;9.40;99.90;;;;;;5034149;28;20029;-65
2022/11/09 00:09:32;;;;;;;34.88;24.63;;;9.40;99.90;;;;;;5034022;28;20465;-61
2022/11/09 00:11:59;;;;;;;28.17;20.38;;;9.40;99.90;;;;;;5034006;28;20458;-65
2022/11/09 00:14:24;;;;;;;30.45;22.90;;;9.40;99.90;;;;;;5034047;28;20365;-61
2022/11/09 00:16:50;;;;;;;26.17;20.17;;;9.30;99.90;;;;;;5034377;28;20066;-66
2022/11/09 00:19:16;;;;;;;33.63;23.75;;;9.20;99.90;;;;;;5034069;28;20017;-65
2022/11/09 00:21:41;;;;;;;26.70;19.08;;;9.20;99.90;;;;;;5034046;28;20049;-65
2022/11/09 00:24:07;;;;;;;32.35;22.98;;;9.20;99.90;;;;;;5033707;28;20017;-62
2022/11/09 00:26:33;;;;;;;27.75;19.92;;;9.20;99.90;;;;;;5034195;28;20021;-66
2022/11/09 00:28:58;;;;;;;23.40;17.77;;;9.10;99.90;;;;;;5033827;28;20025;-63
2022/11/09 00:31:24;;;;;;;22.60;17.20;;;9.10;99.90;;;;;;5034000;28;20117;-62
2022/11/09 00:33:51;;;;;;;29.92;21.38;;;9.10;99.90;;;;;;5033760;28;20095;-63
2022/11/09 00:36:17;;;;;;;36.03;25.40;;;9.10;99.90;;;;;;5033786;28;20028;-63
2022/11/09 00:38:47;;;;;;;26.25;19.73;;;9.10;99.90;;;;;;5033460;28;20067;-62
2022/11/09 00:41:13;;;;;;;21.13;17.75;;;9.00;99.90;;;;;;5033308;28;20116;-65
2022/11/09 00:43:39;;;;;;;32.17;21.80;;;9.00;99.90;;;;;;5033917;28;20104;-65
2022/11/09 00:46:06;;;;;;;26.00;19.60;;;9.00;99.90;;;;;;5033557;28;20029;-61
2022/11/09 00:48:32;;;;;;;22.58;16.77;;;8.90;99.90;;;;;;5033822;28;20075;-62
2022/11/09 00:50:58;;;;;;;23.20;17.00;;;8.90;99.90;;;;;;5033629;28;20468;-63
2022/11/09 00:53:25;;;;;;;24.83;17.95;;;8.90;99.90;;;;;;5033503;28;20048;-62
2022/11/09 00:55:55;;;;;;;19.20;14.50;;;8.90;99.90;;;;;;5033781;28;20514;-62
2022/11/09 00:58:21;;;;;;;21.48;15.82;;;8.90;99.90;;;;;;5033411;28;20018;-62
2022/11/09 01:00:47;;;;;;;19.02;13.60;;;8.90;99.90;;;;;;5033295;28;20044;-62
2022/11/09 01:03:13;;;;;;;19.02;14.48;;;8.90;99.90;;;;;;5033494;28;20033;-64
2022/11/09 01:05:38;;;;;;;22.67;15.80;;;8.80;99.90;;;;;;5033393;28;20024;-60
2022/11/09 01:08:05;;;;;;;20.92;14.70;;;8.90;99.90;;;;;;5033107;28;20026;-62
2022/11/09 01:10:31;;;;;;;20.98;14.68;;;8.80;99.90;;;;;;5033114;28;20054;-64
2022/11/09 01:12:56;;;;;;;42.03;26.52;;;8.80;99.90;;;;;;5033268;28;20025;-61
2022/11/09 01:15:22;;;;;;;62.13;39.72;;;8.90;99.90;;;;;;5033233;28;20025;-63
2022/11/09 01:17:48;;;;;;;38.78;26.17;;;8.80;99.90;;;;;;5033174;28;20471;-67
2022/11/09 01:20:15;;;;;;;38.00;25.75;;;8.60;99.90;;;;;;5033404;28;20480;-64
2022/11/09 01:22:40;;;;;;;33.83;23.67;;;8.60;99.90;;;;;;5033321;28;20360;-65
2022/11/09 01:25:07;;;;;;;29.30;21.02;;;8.70;99.90;;;;;;5033100;28;20021;-61
2022/11/09 01:27:33;;;;;;;23.17;17.92;;;8.70;99.90;;;;;;5033453;28;20087;-65
2022/11/09 01:29:58;;;;;;;22.40;17.75;;;8.70;99.90;;;;;;5033389;28;20025;-64
2022/11/09 01:32:24;;;;;;;22.92;17.58;;;8.70;99.90;;;;;;5033064;28;20032;-62
2022/11/09 01:34:50;;;;;;;22.52;17.40;;;8.70;99.90;;;;;;5033231;28;20025;-65
2022/11/09 01:37:16;;;;;;;21.98;16.30;;;8.60;99.90;;;;;;5032913;28;20143;-64
2022/11/09 01:39:41;;;;;;;23.10;18.45;;;8.60;99.90;;;;;;5032831;28;20387;-66
2022/11/09 01:42:07;;;;;;;21.48;16.55;;;8.60;99.90;;;;;;5033167;28;20494;-62
2022/11/09 01:44:36;;;;;;;19.23;15.30;;;8.60;99.90;;;;;;5033043;28;20077;-62
2022/11/09 01:47:12;;;;;;;16.58;14.65;;;8.60;99.90;;;;;;5032939;28;20021;-62
2022/11/09 01:49:45;;;;;;;21.02;15.63;;;8.60;99.90;;;;;;5032937;28;20014;-63
2022/11/09 01:52:26;;;;;;;21.80;16.98;;;8.60;99.90;;;;;;5033642;28;20022;-64
2022/11/09 01:55:10;;;;;;;19.73;14.88;;;8.50;99.90;;;;;;5037032;28;20034;-67
2022/11/09 01:57:48;;;;;;;20.55;14.52;;;8.50;99.90;;;;;;5036674;28;20091;-61
2022/11/09 02:00:15;;;;;;;16.10;13.02;;;8.50;99.90;;;;;;5036608;28;20048;-65
2022/11/09 02:02:51;;;;;;;18.27;14.77;;;8.50;99.90;;;;;;5036696;28;20557;-65
2022/11/09 02:05:21;;;;;;;16.00;13.20;;;8.50;99.90;;;;;;5036914;28;20025;-66
2022/11/09 02:07:47;;;;;;;19.90;15.15;;;8.50;99.90;;;;;;5036328;28;20021;-61
2022/11/09 02:10:35;;;;;;;27.98;20.38;;;8.50;99.90;;;;;;5036317;28;20046;-63
2022/11/09 02:13:02;;;;;;;23.90;18.17;;;8.50;99.90;;;;;;5036552;28;20026;-61
2022/11/09 02:15:28;;;;;;;20.92;15.65;;;8.40;99.90;;;;;;5036673;28;20026;-62
2022/11/09 02:17:55;;;;;;;20.00;15.02;;;8.40;99.90;;;;;;5036680;28;20025;-66
2022/11/09 02:20:21;;;;;;;31.52;20.48;;;8.50;99.90;;;;;;5036411;28;20026;-65
2022/11/09 02:22:47;;;;;;;43.42;28.55;;;8.50;99.90;;;;;;5036287;28;20033;-63
2022/11/09 02:25:14;;;;;;;32.50;23.40;;;8.50;99.90;;;;;;5036186;28;20471;-65
2022/11/09 02:27:42;;;;;;;31.17;21.58;;;8.50;99.90;;;;;;5036383;28;20486;-63
2022/11/09 02:30:09;;;;;;;29.33;20.58;;;8.50;99.90;;;;;;5036067;28;20060;-67
2022/11/09 02:32:34;;;;;;;28.77;21.45;;;8.50;99.90;;;;;;5036031;28;20068;-62
2022/11/09 02:35:00;;;;;;;24.50;17.48;;;8.60;99.90;;;;;;5036155;28;20415;-65
2022/11/09 02:37:37;;;;;;;23.58;16.02;;;8.60;99.90;;;;;;5035927;28;20075;-65
2022/11/09 02:40:08;;;;;;;17.58;14.20;;;8.60;99.90;;;;;;5035947;28;20028;-60
2022/11/09 02:42:34;;;;;;;18.23;13.38;;;8.50;99.90;;;;;;5035829;28;20104;-64
2022/11/09 02:45:00;;;;;;;16.88;12.50;;;8.60;99.90;;;;;;5035761;28;20415;-61
2022/11/09 02:47:26;;;;;;;14.00;11.57;;;8.50;99.90;;;;;;5035739;28;20028;-65
2022/11/09 02:49:51;;;;;;;16.20;11.68;;;8.50;99.90;;;;;;5035581;28;20028;-61
2022/11/09 02:52:17;;;;;;;15.38;10.98;;;8.60;99.90;;;;;;5035511;28;20109;-63
2022/11/09 02:54:43;;;;;;;13.25;10.98;;;8.50;99.90;;;;;;5035645;28;20078;-60
2022/11/09 02:57:09;;;;;;;12.43;10.20;;;8.50;99.90;;;;;;5035614;28;20025;-63
2022/11/09 02:59:35;;;;;;;11.70;9.25;;;8.50;99.90;;;;;;5035493;28;20426;-63
2022/11/09 03:02:01;;;;;;;10.82;9.15;;;8.50;99.90;;;;;;5035373;28;20030;-65
2022/11/09 03:04:26;;;;;;;13.23;10.75;;;8.50;99.90;;;;;;5035022;28;20049;-62
2022/11/09 03:06:52;;;;;;;14.73;11.43;;;8.50;99.90;;;;;;5035359;28;20036;-66
2022/11/09 03:09:18;;;;;;;13.07;10.52;;;8.50;99.90;;;;;;5035030;28;20048;-64
2022/11/09 03:11:44;;;;;;;13.18;10.95;;;8.50;99.90;;;;;;5035437;28;20029;-65
2022/11/09 03:14:10;;;;;;;12.02;9.77;;;8.50;99.90;;;;;;5035371;28;20029;-60
2022/11/09 03:16:37;;;;;;;11.95;10.43;;;8.50;99.90;;;;;;5035455;28;20435;-66
2022/11/09 03:19:03;;;;;;;13.98;10.90;;;8.50;99.90;;;;;;5035029;28;20480;-67
2022/11/09 03:21:28;;;;;;;16.08;11.75;;;8.50;99.90;;;;;;5035173;28;20033;-64
2022/11/09 03:23:55;;;;;;;14.25;11.15;;;8.50;99.90;;;;;;5035051;28;20072;-65
2022/11/09 03:26:21;;;;;;;13.65;11.25;;;8.60;99.90;;;;;;5035243;28;20471;-64
2022/11/09 03:28:47;;;;;;;13.75;10.88;;;8.60;99.90;;;;;;5035059;28;20028;-64
2022/11/09 03:31:13;;;;;;;17.30;12.70;;;8.60;99.90;;;;;;5034888;28;20364;-65
2022/11/09 03:33:39;;;;;;;14.73;11.45;;;8.60;99.90;;;;;;5034764;28;20029;-62
2022/11/09 03:36:05;;;;;;;13.57;10.77;;;8.60;99.90;;;;;;5035108;28;20021;-63
2022/11/09 03:38:31;;;;;;;20.25;15.07;;;8.60;99.90;;;;;;5035154;28;20025;-65
2022/11/09 03:40:58;;;;;;;18.08;13.23;;;8.60;99.90;;;;;;5034671;28;20108;-65
2022/11/09 03:43:24;;;;;;;17.88;13.52;;;8.60;99.90;;;;;;5034894;28;20515;-63
2022/11/09 03:45:50;;;;;;;21.85;15.40;;;8.60;99.90;;;;;;5035072;28;20026;-64
2022/11/09 03:48:15;;;;;;;17.45;13.07;;;8.60;99.90;;;;;;5034332;28;20502;-63
2022/11/09 03:50:41;;;;;;;20.05;14.07;;;8.60;99.90;;;;;;5034619;28;20549;-64
2022/11/09 03:53:08;;;;;;;18.75;13.75;;;8.60;99.90;;;;;;5034560;28;20022;-63
2022/11/09 03:55:34;;;;;;;22.48;15.25;;;8.60;99.90;;;;;;5034721;28;20025;-65
2022/11/09 03:58:00;;;;;;;21.73;15.52;;;8.60;99.90;;;;;;5034603;28;20028;-65
2022/11/09 04:00:26;;;;;;;17.40;13.32;;;8.60;99.90;;;;;;5034609;28;20406;-62
2022/11/09 04:02:52;;;;;;;18.27;13.68;;;8.60;99.90;;;;;;5034397;28;20083;-62
2022/11/09 04:05:19;;;;;;;16.35;12.20;;;8.60;99.90;;;;;;5034645;28;20467;-61
2022/11/09 04:07:52;;;;;;;15.60;11.32;;;8.60;99.90;;;;;;5034247;28;20100;-63
2022/11/09 04:10:19;;;;;;;15.18;10.75;;;8.50;99.90;;;;;;5034025;28;20067;-64
2022/11/09 04:12:45;;;;;;;12.40;10.38;;;8.50;99.90;;;;;;5034230;28;20071;-62
2022/11/09 04:15:11;;;;;;;13.80;9.73;;;8.40;99.90;;;;;;5033469;28;20021;-64
2022/11/09 04:17:37;;;;;;;11.15;8.93;;;8.50;99.90;;;;;;5034162;28;20028;-67
2022/11/09 04:20:04;;;;;;;10.40;8.93;;;8.40;99.90;;;;;;5033993;28;20029;-60
2022/11/09 04:22:30;;;;;;;10.38;8.52;;;8.40;99.90;;;;;;5034284;28;20105;-64
2022/11/09 04:24:55;;;;;;;11.63;8.25;;;8.50;99.90;;;;;;5033874;28;20569;-62
2022/11/09 04:27:21;;;;;;;10.52;8.43;;;8.40;99.90;;;;;;5033930;28;20021;-61
2022/11/09 04:29:47;;;;;;;11.18;7.53;;;8.40;99.90;;;;;;5033879;28;20036;-62
2022/11/09 04:32:12;;;;;;;12.18;9.00;;;8.40;99.90;;;;;;5033689;28;20529;-62
2022/11/09 04:34:40;;;;;;;13.05;8.93;;;8.40;99.90;;;;;;5033997;28;20026;-66
2022/11/09 04:37:06;;;;;;;9.75;7.95;;;8.40;99.90;;;;;;5034034;28;20418;-65
2022/11/09 04:39:31;;;;;;;15.95;10.90;;;8.30;99.90;;;;;;5033682;28;20079;-60
2022/11/09 04:41:57;;;;;;;9.43;7.88;;;8.30;99.90;;;;;;5033641;28;20030;-62
2022/11/09 04:44:23;;;;;;;9.32;7.55;;;8.20;99.90;;;;;;5033928;28;20026;-63
2022/11/09 04:46:48;;;;;;;14.10;10.18;;;8.20;99.90;;;;;;5033493;28;20025;-61
2022/11/09 04:49:14;;;;;;;11.95;8.82;;;8.20;99.90;;;;;;5033756;28;20032;-63
2022/11/09 04:51:40;;;;;;;11.38;9.05;;;8.10;99.90;;;;;;5033508;28;20029;-66
2022/11/09 04:54:05;;;;;;;21.52;14.70;;;8.20;99.90;;;;;;5033578;28;20026;-66
2022/11/09 04:56:31;;;;;;;14.82;10.50;;;8.10;99.90;;;;;;5033408;28;20025;-66
2022/11/09 04:58:57;;;;;;;18.52;13.52;;;8.00;99.90;;;;;;5033578;28;20108;-64
2022/11/09 05:01:22;;;;;;;24.80;16.48;;;8.00;99.90;;;;;;5033127;28;20026;-63
2022/11/09 05:03:48;;;;;;;19.52;13.70;;;8.00;99.90;;;;;;5033387;28;20028;-62
2022/11/09 05:06:32;;;;;;;15.48;11.23;;;8.00;99.90;;;;;;5033527;28;20163;-66
2022/11/09 05:09:05;;;;;;;12.98;10.18;;;7.90;99.90;;;;;;5033018;28;20022;-63
2022/11/09 05:11:32;;;;;;;13.23;10.00;;;8.00;99.90;;;;;;5033448;28;20052;-61
2022/11/09 05:13:58;;;;;;;11.30;9.05;;;8.00;99.90;;;;;;5033553;28;20036;-66
2022/11/09 05:16:24;;;;;;;11.82;8.88;;;8.00;99.90;;;;;;5033088;28;20025;-63
2022/11/09 05:18:51;;;;;;;11.18;8.60;;;8.00;99.90;;;;;;5033167;28;20071;-65
2022/11/09 05:21:17;;;;;;;10.95;8.63;;;8.00;99.90;;;;;;5033118;28;20026;-65
2022/11/09 05:23:58;;;;;;;9.70;7.75;;;8.00;99.90;;;;;;5033217;28;20075;-62
2022/11/09 05:26:27;;;;;;;14.52;10.52;;;8.10;99.90;;;;;;5034686;28;20547;-61
2022/11/09 05:28:53;;;;;;;10.60;8.25;;;8.00;99.90;;;;;;5037031;28;20026;-64
2022/11/09 05:31:19;;;;;;;10.93;8.20;;;8.00;99.90;;;;;;5037048;28;20463;-62
2022/11/09 05:33:47;;;;;;;12.50;9.13;;;8.00;99.90;;;;;;5037196;28;20075;-65
2022/11/09 05:36:13;;;;;;;9.80;8.25;;;8.00;99.90;;;;;;5037118;28;20049;-63
2022/11/09 05:38:39;;;;;;;30.60;19.00;;;8.10;99.90;;;;;;5052659;28;20065;-66
2022/11/09 05:41:04;;;;;;;17.05;13.13;;;8.00;99.90;;;;;;5056800;28;20147;-64
2022/11/09 05:43:30;;;;;;;13.98;10.95;;;8.00;99.90;;;;;;5056702;28;20447;-65
2022/11/09 05:45:55;;;;;;;15.70;11.82;;;8.00;99.90;;;;;;5056604;28;20100;-64
2022/11/09 05:48:21;;;;;;;65.15;28.35;;;8.00;99.90;;;;;;5057016;28;20105;-64
2022/11/09 05:50:47;;;;;;;29.73;18.85;;;8.10;99.90;;;;;;5056784;28;20064;-62
2022/11/09 05:53:12;;;;;;;19.92;15.13;;;8.00;99.90;;;;;;5056055;28;20053;-64
2022/11/09 05:55:38;;;;;;;17.48;14.48;;;8.00;99.90;;;;;;5056407;28;20017;-65
2022/11/09 05:58:04;;;;;;;19.85;14.38;;;8.00;99.90;;;;;;5056493;28;20067;-61
2022/11/09 06:00:30;;;;;;;31.85;16.05;;;8.00;99.90;;;;;;5056528;28;20486;-65
2022/11/09 06:03:07;;;;;;;18.98;13.95;;;8.00;99.90;;;;;;5056240;28;20467;-66
2022/11/09 06:05:34;;;;;;;33.55;17.40;;;8.00;99.90;;;;;;5056706;28;20386;-65
2022/11/09 06:08:13;;;;;;;31.35;19.38;;;8.00;99.90;;;;;;5055983;28;20382;-65
2022/11/09 06:10:39;;;;;;;20.55;15.32;;;8.00;99.90;;;;;;5056001;28;20068;-63
2022/11/09 06:13:05;;;;;;;25.63;17.35;;;8.00;99.90;;;;;;5056283;28;20098;-63
2022/11/09 06:15:31;;;;;;;23.20;17.15;;;8.00;99.90;;;;;;5056023;28;20438;-65
2022/11/09 06:17:58;;;;;;;20.42;16.05;;;7.90;99.90;;;;;;5056515;28;20113;-65
2022/11/09 06:20:26;;;;;;;21.08;16.83;;;7.90;99.90;;;;;;5056132;28;20388;-64
2022/11/09 06:22:56;;;;;;;41.38;28.40;;;7.90;99.90;;;;;;5055540;28;20482;-68
2022/11/09 06:25:22;;;;;;;29.33;22.67;;;7.70;99.90;;;;;;5055613;28;20088;-66
2022/11/09 06:27:48;;;;;;;42.40;26.80;;;7.70;99.90;;;;;;5054204;28;20024;-63
2022/11/09 06:30:13;;;;;;;37.78;25.95;;;7.70;99.90;;;;;;5054268;28;20029;-64
2022/11/09 06:32:40;;;;;;;30.08;21.75;;;7.80;99.90;;;;;;5054897;28;20100;-64
2022/11/09 06:35:06;;;;;;;67.75;39.17;;;7.80;99.90;;;;;;5053925;28;20395;-62
2022/11/09 06:37:31;;;;;;;81.72;48.75;;;8.00;99.90;;;;;;5052712;28;20387;-63
2022/11/09 06:39:57;;;;;;;87.85;49.28;;;7.90;99.90;;;;;;5053409;28;20029;-67
2022/11/09 06:42:23;;;;;;;119.38;63.25;;;7.90;99.90;;;;;;5053753;28;20033;-62
2022/11/09 06:44:49;;;;;;;72.13;45.88;;;7.90;99.90;;;;;;5054038;28;20384;-65
2022/11/09 06:47:15;;;;;;;98.72;53.45;;;7.90;99.90;;;;;;5054593;28;20387;-64
2022/11/09 06:49:40;;;;;;;106.05;58.75;;;8.00;99.90;;;;;;5054826;28;20067;-66
2022/11/09 06:52:06;;;;;;;85.75;51.08;;;7.90;99.90;;;;;;5055073;28;20017;-62
2022/11/09 06:54:33;;;;;;;87.90;48.90;;;7.90;99.90;;;;;;5055627;28;20058;-66
2022/11/09 06:56:59;;;;;;;72.65;46.97;;;7.90;99.90;;;;;;5055134;28;20032;-65
2022/11/09 06:59:25;;;;;;;76.25;47.08;;;8.00;99.90;;;;;;5055438;28;20029;-63
2022/11/09 07:01:51;;;;;;;101.97;58.03;;;8.00;99.90;;;;;;5052480;28;20069;-64
2022/11/09 07:04:17;;;;;;;80.70;50.30;;;8.00;99.90;;;;;;5050284;28;20048;-65
2022/11/09 07:06:48;;;;;;;76.30;48.08;;;8.00;99.90;;;;;;5054315;28;20021;-66
2022/11/09 07:09:18;;;;;;;67.43;43.85;;;8.20;99.90;;;;;;5052045;28;20098;-66
2022/11/09 07:11:44;;;;;;;79.38;48.40;;;8.30;99.90;;;;;;5053307;28;20025;-67
2022/11/09 07:14:10;;;;;;;50.80;36.65;;;8.40;99.90;;;;;;5053682;28;20439;-65
2022/11/09 07:16:36;;;;;;;47.15;33.40;;;8.60;99.90;;;;;;5054447;28;20057;-62
2022/11/09 07:19:02;;;;;;;39.28;30.02;;;8.90;99.90;;;;;;5055119;28;20123;-62
2022/11/09 07:21:29;;;;;;;61.67;35.85;;;9.20;99.90;;;;;;5053341;28;20470;-66
2022/11/09 07:23:55;;;;;;;46.33;31.75;;;9.50;99.90;;;;;;5044542;28;20352;-65
2022/11/09 07:26:20;;;;;;;32.63;26.48;;;9.60;99.90;;;;;;5046671;28;20032;-63
2022/11/09 07:28:46;;;;;;;34.00;23.13;;;9.90;99.90;;;;;;5045170;28;20063;-63
2022/11/09 07:31:12;;;;;;;25.05;20.40;;;10.20;99.90;;;;;;5043142;28;20036;-63
2022/11/09 07:33:37;;;;;;;25.67;19.08;;;10.50;99.90;;;;;;5044762;28;20406;-65
2022/11/09 07:36:04;;;;;;;20.98;18.00;;;10.80;99.90;;;;;;5044645;28;20036;-67
2022/11/09 07:38:30;;;;;;;19.08;15.48;;;11.10;99.90;;;;;;5043036;28;20032;-65
2022/11/09 07:41:00;;;;;;;15.18;13.55;;;11.90;99.90;;;;;;5044670;28;20037;-63
2022/11/09 07:43:26;;;;;;;14.15;12.65;;;12.80;99.90;;;;;;5039606;28;20028;-66
2022/11/09 07:45:52;;;;;;;15.05;11.70;;;13.70;99.90;;;;;;5035959;28;20319;-65
2022/11/09 07:48:17;;;;;;;14.18;12.63;;;14.70;99.90;;;;;;5041851;28;20076;-65
2022/11/09 07:50:43;;;;;;;16.15;12.75;;;14.90;96.10;;;;;;5034932;28;20435;-65
2022/11/09 07:53:12;;;;;;;14.55;12.07;;;15.50;95.20;;;;;;5040770;28;20100;-64
2022/11/09 07:55:37;;;;;;;14.52;12.70;;;15.60;91.40;;;;;;5050868;28;20033;-63
2022/11/09 07:58:06;;;;;;;22.90;18.45;;;16.20;89.00;;;;;;5051801;28;20021;-66
2022/11/09 08:00:34;;;;;;;26.02;20.45;;;16.90;78.40;;;;;;5038480;28;20443;-64
2022/11/09 08:03:00;;;;;;;63.03;37.63;;;17.70;72.40;;;;;;5041590;28;20018;-62
2022/11/09 08:05:26;;;;;;;61.75;38.63;;;17.20;70.10;;;;;;5042944;28;20017;-64
2022/11/09 08:07:56;;;;;;;51.35;34.08;;;17.20;69.20;;;;;;5037531;28;20600;-64
2022/11/09 08:10:26;;;;;;;43.90;31.55;;;17.20;71.00;;;;;;5039499;28;20501;-64
2022/11/09 08:12:57;;;;;;;41.92;30.60;;;17.60;70.80;;;;;;5040882;28;20120;-71
2022/11/09 08:15:24;;;;;;;40.65;29.77;;;17.30;70.20;;;;;;5042180;28;21494;-68
2022/11/09 08:17:50;;;;;;;36.80;28.05;;;16.80;73.10;;;;;;5037059;28;20025;-67
2022/11/09 08:20:16;;;;;;;38.90;28.65;;;16.60;75.60;;;;;;5039353;28;20059;-67
2022/11/09 08:22:43;;;;;;;35.50;26.48;;;16.30;76.30;;;;;;5036409;28;20106;-65
2022/11/09 08:25:10;;;;;;;44.45;33.72;;;16.70;77.50;;;;;;5038497;28;20056;-68
2022/11/09 08:27:39;;;;;;;63.80;45.22;;;17.30;75.20;;;;;;5041025;28;20021;-65
2022/11/09 08:30:15;;;;;;;56.08;42.58;;;16.90;71.90;;;;;;5050073;28;20047;-67
2022/11/09 08:32:42;;;;;;;57.60;42.55;;;16.10;74.70;;;;;;5045086;28;20028;-67
2022/11/09 08:35:09;;;;;;;53.08;40.83;;;15.60;78.00;;;;;;5044144;28;20049;-66
2022/11/09 08:37:38;;;;;;;48.70;37.55;;;15.30;81.80;;;;;;5044783;28;20025;-65
2022/11/09 08:40:05;;;;;;;62.90;44.95;;;15.00;87.80;;;;;;5048526;28;20471;-65
2022/11/09 08:42:34;;;;;;;56.65;42.70;;;14.70;93.20;;;;;;5039876;28;20025;-66
2022/11/09 08:45:01;;;;;;;63.42;43.22;;;14.30;99.90;;;;;;5031514;28;20041;-68
2022/11/09 08:47:29;;;;;;;58.60;43.60;;;14.10;99.90;;;;;;5044673;28;20548;-69
2022/11/09 08:49:55;;;;;;;62.03;44.92;;;13.80;99.90;;;;;;5040243;28;20479;-63
2022/11/09 08:52:21;;;;;;;61.55;45.03;;;14.20;99.90;;;;;;5033204;28;20025;-72
2022/11/09 08:54:46;;;;;;;57.72;44.17;;;14.60;99.90;;;;;;5035840;28;20040;-64
2022/11/09 08:57:19;;;;;;;49.40;38.50;;;14.80;99.90;;;;;;5039058;28;20037;-66
2022/11/09 08:59:45;;;;;;;39.37;33.60;;;14.80;99.90;;;;;;5037017;28;20044;-63
2022/11/09 09:02:19;;;;;;;43.38;33.42;;;14.90;99.90;;;;;;5048558;28;20024;-63
2022/11/09 09:04:45;;;;;;;46.90;35.95;;;14.80;99.90;;;;;;5032403;28;20124;-68
2022/11/09 09:07:12;;;;;;;37.22;31.95;;;14.70;99.90;;;;;;5033471;28;20052;-67
2022/11/09 09:09:39;;;;;;;38.38;29.10;;;14.80;99.90;;;;;;5028142;28;20058;-68
2022/11/09 09:12:10;;;;;;;35.55;29.02;;;15.20;99.90;;;;;;5037188;28;20053;-68
2022/11/09 09:14:36;;;;;;;41.08;29.45;;;15.60;99.90;;;;;;5037422;28;20327;-69
2022/11/09 09:17:02;;;;;;;40.63;31.58;;;15.80;98.80;;;;;;5037455;28;20141;-66
2022/11/09 09:19:28;;;;;;;37.28;29.40;;;16.00;97.60;;;;;;5038837;28;20112;-66
2022/11/09 09:21:54;;;;;;;31.65;26.90;;;16.10;96.80;;;;;;5032181;28;20033;-63
2022/11/09 09:24:20;;;;;;;30.85;26.80;;;16.30;99.50;;;;;;5039281;28;20083;-65
2022/11/09 09:26:45;;;;;;;28.08;24.95;;;16.70;99.10;;;;;;5041146;28;20457;-66
2022/11/09 09:29:12;;;;;;;30.90;26.60;;;16.90;97.00;;;;;;5030908;28;20484;-65
2022/11/09 09:31:39;;;;;;;28.30;25.17;;;17.30;95.10;;;;;;5042871;28;20020;-68
2022/11/09 09:34:05;;;;;;;27.27;24.13;;;17.60;94.20;;;;;;5026827;28;20104;-66
2022/11/09 09:36:31;;;;;;;28.42;24.17;;;17.90;91.50;;;;;;5033017;28;20030;-65
2022/11/09 09:38:57;;;;;;;29.60;23.98;;;18.20;88.80;;;;;;5033301;28;20108;-65
2022/11/09 09:41:58;;;;;;;27.77;23.27;;;18.40;90.00;;;;;;5038982;28;20043;-65
2022/11/09 09:44:44;;;;;;;33.97;25.67;;;18.60;86.30;;;;;;5033398;28;20033;-71
2022/11/09 09:47:32;;;;;;;28.80;25.55;;;18.70;79.60;;;;;;5037950;28;20025;-65
2022/11/09 09:50:27;;;;;;;25.13;22.50;;;18.50;81.00;;;;;;5037423;28;20037;-64
2022/11/09 09:53:34;;;;;;;24.55;21.95;;;18.50;83.10;;;;;;5040929;28;20117;-67
2022/11/09 09:56:03;;;;;;;23.50;21.10;;;18.90;80.90;;;;;;5039342;28;20049;-67
2022/11/09 09:58:33;;;;;;;24.75;22.15;;;19.20;78.60;;;;;;5032416;28;20083;-66
2022/11/09 10:01:35;;;;;;;26.40;23.13;;;19.50;76.30;;;;;;5040989;28;20128;-63
2022/11/09 10:04:01;;;;;;;23.60;21.23;;;19.80;73.50;;;;;;5035260;28;20112;-66
2022/11/09 10:06:57;;;;;;;21.40;19.27;;;19.60;77.70;;;;;;5044781;28;20111;-69
2022/11/09 10:09:38;;;;;;;19.70;17.60;;;19.60;74.60;;;;;;5033534;28;20041;-65
2022/11/09 10:12:40;;;;;;;20.38;18.02;;;19.80;79.20;;;;;;5035538;28;20026;-68
2022/11/09 10:15:50;;;;;;;19.23;17.42;;;20.00;77.90;;;;;;5039881;28;20025;-68
2022/11/09 10:18:53;;;;;;;17.20;15.38;;;20.00;75.00;;;;;;5041966;28;20109;-69
2022/11/09 10:21:40;;;;;;;16.25;14.65;;;20.30;71.70;;;;;;5034764;28;20045;-69
2022/11/09 10:24:58;;;;;;;14.25;12.88;;;20.50;72.20;;;;;;5016494;28;20491;-66
2022/11/09 10:27:51;;;;;;;15.35;13.85;;;20.70;69.70;;;;;;4985519;28;20034;-66
2022/11/09 10:30:46;;;;;;;15.38;13.88;;;20.90;69.30;;;;;;5050223;28;20544;-68
2022/11/09 10:33:21;;;;;;;17.60;15.75;;;21.10;68.00;;;;;;5044185;28;20057;-70
2022/11/09 10:36:09;;;;;;;18.00;16.20;;;21.40;67.40;;;;;;5035599;28;20029;-66
2022/11/09 10:38:49;;;;;;;20.88;18.77;;;21.30;66.00;;;;;;5043837;28;20078;-67
2022/11/09 10:41:29;;;;;;;22.48;20.15;;;21.40;65.50;;;;;;5045102;28;20120;-68
2022/11/09 10:43:57;;;;;;;19.65;17.70;;;21.40;65.10;;;;;;5032861;28;20132;-69
2022/11/09 10:46:24;;;;;;;20.95;18.85;;;21.30;66.20;;;;;;5030556;28;20029;-70
2022/11/09 10:48:53;;;;;;;18.13;16.38;;;21.30;65.80;;;;;;5031129;28;20475;-66
2022/11/09 10:51:30;;;;;;;16.48;14.88;;;21.20;66.60;;;;;;5050565;28;20029;-66
2022/11/09 10:54:22;;;;;;;14.45;13.00;;;21.20;66.50;;;;;;5048804;28;20023;-66
2022/11/09 10:56:51;;;;;;;13.48;12.02;;;21.50;65.20;;;;;;5045657;28;20025;-65
2022/11/09 10:59:42;;;;;;;24.48;20.17;;;21.80;65.20;;;;;;5048176;28;20024;-63
2022/11/09 11:02:27;;;;;;;15.50;13.90;;;22.00;62.60;;;;;;5049944;28;20598;-63
2022/11/09 11:05:06;;;;;;;13.20;11.82;;;22.00;62.60;;;;;;5050166;28;20028;-66
2022/11/09 11:07:34;;;;;;;11.35;10.35;;;22.20;62.10;;;;;;5052847;28;20026;-67
2022/11/09 11:10:15;;;;;;;10.40;9.40;;;22.20;62.50;;;;;;5045457;28;20054;-64
2022/11/09 11:12:50;;;;;;;9.85;8.95;;;22.20;63.80;;;;;;5041878;28;20412;-70
2022/11/09 11:15:36;;;;;;;9.15;8.35;;;22.50;62.70;;;;;;5043138;28;20021;-65
2022/11/09 11:18:23;;;;;;;9.80;8.90;;;22.70;61.20;;;;;;5041136;28;20028;-65
2022/11/09 11:21:12;;;;;;;10.82;9.93;;;22.90;63.00;;;;;;5041394;28;20043;-66
2022/11/09 11:23:38;;;;;;;12.80;11.70;;;23.10;61.00;;;;;;5043209;28;20383;-65
2022/11/09 11:26:23;;;;;;;12.60;11.45;;;23.30;59.50;;;;;;5042110;28;20107;-65
2022/11/09 11:28:54;;;;;;;13.27;12.10;;;23.60;60.10;;;;;;5038732;28;20025;-65
2022/11/09 11:31:21;;;;;;;11.85;10.85;;;23.60;60.00;;;;;;5040337;28;20427;-65
2022/11/09 11:33:47;;;;;;;11.85;10.75;;;23.70;59.00;;;;;;5033511;28;20030;-66
2022/11/09 11:36:49;;;;;;;11.20;10.20;;;23.90;58.80;;;;;;5033869;28;20094;-67
2022/11/09 11:39:27;;;;;;;10.32;9.43;;;24.10;56.40;;;;;;5030623;28;20029;-65
2022/11/09 11:42:04;;;;;;;11.40;10.40;;;24.20;56.50;;;;;;5045140;28;20111;-65
2022/11/09 11:44:52;;;;;;;11.65;10.63;;;24.40;59.50;;;;;;5043254;28;20021;-67
2022/11/09 11:47:37;;;;;;;10.15;9.25;;;24.20;57.50;;;;;;5045897;28;20475;-67
2022/11/09 11:50:35;;;;;;;11.52;10.52;;;24.20;57.80;;;;;;5052059;28;20017;-69
2022/11/09 11:53:13;;;;;;;10.80;9.90;;;24.30;60.00;;;;;;5042872;28;20463;-67
2022/11/09 11:55:52;;;;;;;16.67;14.98;;;24.50;57.40;;;;;;5044511;28;20159;-64
2022/11/09 11:58:45;;;;;;;13.82;12.70;;;24.30;55.60;;;;;;5033261;28;20026;-65
2022/11/09 12:01:34;;;;;;;12.77;11.63;;;24.30;57.80;;;;;;5034436;28;20033;-69
2022/11/09 12:04:20;;;;;;;12.25;11.20;;;24.60;59.00;;;;;;5043965;28;20029;-67
2022/11/09 12:06:54;;;;;;;11.80;10.80;;;24.90;59.70;;;;;;5052463;28;20021;-67
2022/11/09 12:09:55;;;;;;;11.38;10.38;;;25.10;54.90;;;;;;5038831;28;20041;-67
2022/11/09 12:12:39;;;;;;;11.88;10.77;;;25.20;52.80;;;;;;5040931;28;20098;-65
2022/11/09 12:15:31;;;;;;;15.07;13.07;;;25.30;53.50;;;;;;5035920;28;20045;-63
2022/11/09 12:18:18;;;;;;;24.27;17.95;;;25.20;53.00;;;;;;5043253;28;20021;-66
2022/11/09 12:21:01;;;;;;;34.25;28.67;;;25.10;54.00;;;;;;5035141;28;20036;-65
2022/11/09 12:23:38;;;;;;;26.75;23.73;;;24.60;54.20;;;;;;5028809;28;20029;-65
2022/11/09 12:26:31;;;;;;;39.97;31.17;;;24.20;55.90;;;;;;5028757;28;20025;-67
2022/11/09 12:29:12;;;;;;;37.35;31.80;;;23.90;56.30;;;;;;5030520;28;20024;-64
2022/11/09 12:31:52;;;;;;;38.92;33.03;;;23.60;57.30;;;;;;5047557;28;20029;-65
2022/11/09 12:34:57;;;;;;;45.30;36.90;;;23.30;58.40;;;;;;5047393;28;20483;-65
2022/11/09 12:37:31;;;;;;;36.38;30.98;;;22.90;58.80;;;;;;5048548;28;20091;-65
2022/11/09 12:40:23;;;;;;;37.45;31.35;;;22.60;58.70;;;;;;5049194;28;20025;-66
2022/11/09 12:43:16;;;;;;;36.00;30.17;;;22.60;59.60;;;;;;5050727;28;20029;-64
2022/11/09 12:45:43;;;;;;;32.20;26.77;;;22.40;59.40;;;;;;5047905;28;20029;-60
2022/11/09 12:48:30;;;;;;;24.40;21.80;;;22.50;59.20;;;;;;5049967;28;20435;-67
2022/11/09 12:50:58;;;;;;;21.75;18.98;;;22.30;59.30;;;;;;5047709;28;20449;-65
2022/11/09 12:53:32;;;;;;;19.70;17.13;;;22.20;58.80;;;;;;5049137;28;20386;-68